LLUVIA / DATOS DE TEMPERATURA

Enero 2004

Fecha / Hora Temperatura (*F) Dew Point (*F) Humedad Relativa (%)
01/13/04 18:21 78.71 55.84 45.4
01/13/04 18:51 75.92 52.7 44.4
01/13/04 19:21 71.08 46.72 41.8
01/13/04 19:51 67.65 43.32 41.3
01/13/04 20:21 66.28 42.1 41.3
01/13/04 20:51 64.22 40.56 41.8
01/13/04 21:21 62.85 39.64 42.3
01/13/04 21:51 61.48 38.76 42.9
01/13/04 22:21 60.8 38.14 42.9
01/13/04 22:51 59.42 37.18 43.4
01/13/04 23:21 58.73 36.56 43.4
01/13/04 23:51 58.04 36.52 44.4
01/14/04 00:21 57.35 36.16 44.9
01/14/04 00:51 56.66 35.54 44.9
01/14/04 01:21 55.97 35.18 45.4
01/14/04 01:51 55.97 35.46 45.9
01/14/04 02:21 55.28 35.1 46.4
01/14/04 02:51 56.66 40.32 54.2
01/14/04 03:21 59.42 45.06 58.9
01/14/04 03:51 61.48 47 58.9
01/14/04 04:21 61.48 46.78 58.4
01/14/04 04:51 64.91 48.76 55.8
01/14/04 05:21 66.28 47.42 50.6
01/14/04 05:51 67.65 46.72 47
01/14/04 06:21 69.02 45.86 43.4
01/14/04 06:51 71.08 45.1 39.3
01/14/04 07:21 70.39 39.88 32.9
01/14/04 07:51 70.39 40.18 33.3
01/14/04 08:21 70.39 39.88 32.9
01/14/04 08:51 70.39 39.88 32.9
01/14/04 09:21 71.08 35.54 27.1
01/14/04 09:51 75.22 34.48 22.6
01/14/04 10:21 72.46 28.04 19.1
01/14/04 10:51 73.15 28.1 18.7
01/14/04 11:21 73.84 27.6 17.9
01/14/04 11:51 74.53 26.92 17
01/14/04 12:21 75.22 23.82 14.6
01/14/04 12:51 75.92 23.88 14.3
01/14/04 13:21 76.62 24.92 14.6
01/14/04 13:51 77.31 25.48 14.6
01/14/04 14:21 75.22 27.48 17
01/14/04 14:51 75.92 30.36 18.7
01/14/04 15:21 73.84 29.68 19.5
01/14/04 15:51 71.77 31.04 22.1
01/14/04 16:21 70.39 30.44 22.6
01/14/04 16:51 67.65 31.78 26.2
01/14/04 17:21 65.59 31.3 27.6
01/14/04 17:51 64.22 28.86 26.2
01/14/04 18:21 64.22 28.4 25.7
01/14/04 18:51 61.48 27.78 27.6
01/14/04 19:21 61.48 27.78 27.6
01/14/04 19:51 60.11 28.22 29.5
01/14/04 20:21 58.73 27.76 30.4
01/14/04 20:51 57.35 26.94 30.9
01/14/04 21:21 55.97 26.5 31.9
01/14/04 21:51 55.28 26.64 32.9
01/14/04 22:21 54.58 26.04 32.9
01/14/04 22:51 54.58 27.04 34.3
01/14/04 23:21 53.89 26.42 34.3
01/14/04 23:51 53.89 26.78 34.8
01/15/04 00:21 52.49 26.22 35.8
01/15/04 00:51 52.49 26.88 36.8
01/15/04 01:21 51.79 26.26 36.8
01/15/04 01:51 50.38 25.96 38.3
01/15/04 02:21 51.08 25.96 37.3
01/15/04 02:51 49.67 25.64 38.8
01/15/04 03:21 48.96 26.22 40.8
01/15/04 03:51 48.96 25.62 39.8
01/15/04 04:21 49.67 26.26 39.8
01/15/04 04:51 48.96 25.92 40.3
01/15/04 05:21 48.25 25.88 41.3
01/15/04 05:51 48.25 26.44 42.3
01/15/04 06:21 47.53 26.7 43.9
01/15/04 06:51 46.82 26.32 44.4
01/15/04 07:21 48.25 26.44 42.3
01/15/04 07:51 49.67 27.16 41.3
01/15/04 08:21 53.19 27.18 36.3
01/15/04 08:51 58.04 27.54 30.9
01/15/04 09:21 60.8 27.96 28.5
01/15/04 09:51 62.17 30 29.5
01/15/04 10:21 62.85 30.58 29.5
01/15/04 10:51 64.22 30.14 27.6
01/15/04 11:21 66.28 31.08 26.7
01/15/04 11:51 66.96 30.72 25.7
01/15/04 12:21 67.65 30.02 24.4
01/15/04 12:51 69.71 33.52 26.2
01/15/04 13:21 69.71 35.28 28.1
01/15/04 13:51 69.71 37.68 30.9
01/15/04 14:21 69.71 39.58 33.3
01/15/04 14:51 69.02 41.56 36.8
01/15/04 15:21 68.33 41.64 37.8
01/15/04 15:51 66.28 46.84 49.5
01/15/04 16:21 63.54 48.92 58.9
01/15/04 16:51 61.48 49.24 64.1
01/15/04 17:21 60.11 51.1 72.1
01/15/04 17:51 58.04 51.4 78.5
01/15/04 18:21 57.35 51.68 81.3
01/15/04 18:51 56.66 51.46 82.7
01/15/04 19:21 55.97 51.38 84.5
01/15/04 19:51 55.28 50.7 84.5
01/15/04 20:21 54.58 49.14 81.8
01/15/04 20:51 53.89 48.6 82.2
01/15/04 21:21 53.19 49.2 86.3
01/15/04 21:51 53.19 49.88 88.5
01/15/04 22:21 53.89 51.2 90.6
01/15/04 22:51 53.89 51.08 90.2
01/15/04 23:21 53.89 50.94 89.7
01/15/04 23:51 53.89 50.7 88.9
01/16/04 00:21 53.19 49.34 86.7
01/16/04 00:51 53.19 49.48 87.2
01/16/04 01:21 52.49 49.04 88
01/16/04 01:51 51.08 48.9 92.2
01/16/04 02:21 49.67 47.16 91
01/16/04 02:51 48.96 45.44 87.6
01/16/04 03:21 49.67 47.5 92.2
01/16/04 03:51 49.67 47.84 93.4
01/16/04 04:21 48.25 45.64 90.6
01/16/04 04:51 47.53 45.38 92.2
01/16/04 05:21 46.82 44.8 92.6
01/16/04 05:51 46.1 44.2 93
01/16/04 06:21 46.1 44.64 94.6
01/16/04 06:51 46.1 44.84 95.3
01/16/04 07:21 46.82 45.96 96.8
01/16/04 07:51 48.25 47.5 97.2
01/16/04 08:21 51.08 49.02 92.6
01/16/04 08:51 55.97 47.3 72.6
01/16/04 09:21 59.42 42.16 52.7
01/16/04 09:51 62.17 39.38 42.9
01/16/04 10:21 63.54 38.36 39.3
01/16/04 10:51 64.22 36.26 35.3
01/16/04 11:21 66.96 34.56 30
01/16/04 11:51 67.65 35.14 30
01/16/04 12:21 68.33 34.1 28.1
01/16/04 12:51 70.39 33.24 25.3
01/16/04 13:21 71.08 31.98 23.5
01/16/04 13:51 73.15 34.66 24.4
01/16/04 14:21 71.08 35.16 26.7
01/16/04 14:51 70.39 34.12 26.2
01/16/04 15:21 70.39 42.42 36.3
01/16/04 15:51 66.96 43.34 42.3
01/16/04 16:21 65.59 43.06 43.9
01/16/04 16:51 63.54 44.9 50.6
01/16/04 17:21 61.48 44.56 53.7
01/16/04 17:51 60.11 44.52 56.3
01/16/04 18:21 58.73 44.64 59.4
01/16/04 18:51 57.35 44.04 61
01/16/04 19:21 55.97 43.36 62.5
01/16/04 19:51 54.58 42.26 63
01/16/04 20:21 53.89 42.06 64.1
01/16/04 20:51 52.49 41.32 65.6
01/16/04 21:21 51.79 40.66 65.6
01/16/04 21:51 50.38 40.08 67.6
01/16/04 22:21 49.67 39.6 68.1
01/16/04 22:51 49.67 40.56 70.7
01/16/04 23:21 48.96 40.24 71.7
01/16/04 23:51 48.25 40.22 73.6
01/17/04 00:21 47.53 39.72 74.1
01/17/04 00:51 46.82 39.36 75.1
01/17/04 01:21 46.82 40 77
01/17/04 01:51 45.38 39.1 78.5
01/17/04 02:21 45.38 39.56 79.9
01/17/04 02:51 45.38 40.16 81.8
01/17/04 03:21 44.65 39.88 83.2
01/17/04 03:51 44.65 40.28 84.5
01/17/04 04:21 43.92 40.38 87.2
01/17/04 04:51 45.38 43.48 93
01/17/04 05:21 46.1 43.4 90.2
01/17/04 05:51 46.1 44.74 95
01/17/04 06:21 46.1 44.94 95.7
01/17/04 06:51 45.38 44.34 96.1
01/17/04 07:21 45.38 44.34 96.1
01/17/04 07:51 46.1 45.06 96.1
01/17/04 08:21 46.82 44.8 92.6
01/17/04 08:51 48.96 44.94 85.9
01/17/04 09:21 51.79 44.98 77.5
01/17/04 09:51 56.66 34.04 42.3
01/17/04 10:21 61.48 22.46 22.1
01/17/04 10:51 62.85 23.18 21.7
01/17/04 11:21 63.54 21.82 20
01/17/04 11:51 64.91 22.94 20
01/17/04 12:21 65.59 27.38 23.5
01/17/04 12:51 65.59 27.78 23.9
01/17/04 13:21 64.22 24.32 21.7
01/17/04 13:51 64.91 26.28 23
01/17/04 14:21 64.91 27.2 23.9
01/17/04 14:51 64.22 26.22 23.5
01/17/04 15:21 62.85 25.48 23.9
01/17/04 15:51 61.48 27.34 27.1
01/17/04 16:21 60.11 25.8 26.7
01/17/04 16:51 58.04 25.6 28.5
01/17/04 17:21 56.66 25.64 30
01/17/04 17:51 55.97 25.36 30.4
01/17/04 18:21 55.28 25.9 31.9
01/17/04 18:51 53.89 25.42 32.9
01/17/04 19:21 53.19 25.46 33.8
01/17/04 19:51 51.79 25.94 36.3
01/17/04 20:21 51.79 25.6 35.8
01/17/04 20:51 51.08 25.32 36.3
01/17/04 21:21 49.67 25.64 38.8
01/17/04 21:51 48.96 24.7 38.3
01/17/04 22:21 48.25 24.98 39.8
01/17/04 22:51 49.67 25.64 38.8
01/17/04 23:21 47.53 25.22 41.3
01/17/04 23:51 46.1 25.12 43.4
01/18/04 00:21 46.82 24.86 41.8
01/18/04 00:51 45.38 24.74 43.9
01/18/04 01:21 44.65 24.08 43.9
01/18/04 01:51 44.65 24.34 44.4
01/18/04 02:21 43.19 23.8 45.9
01/18/04 02:51 43.92 23.42 43.9
01/18/04 03:21 43.92 23.68 44.4
01/18/04 03:51 41.72 23.52 48
01/18/04 04:21 41.72 23.76 48.5
01/18/04 04:51 43.19 24.88 48
01/18/04 05:21 48.25 24.68 39.3
01/18/04 05:51 50.38 24.36 35.8
01/18/04 06:21 48.25 24.38 38.8
01/18/04 06:51 46.82 24 40.3
01/18/04 07:21 44.65 24.34 44.4
01/18/04 07:51 46.82 25.5 42.9
01/18/04 08:21 50.38 24.68 36.3
01/18/04 08:51 58.04 25.26 28.1
01/18/04 09:21 59.42 25.58 27.1
01/18/04 09:51 60.11 26.16 27.1
01/18/04 10:21 62.17 26.26 25.3
01/18/04 10:51 62.85 25.98 24.4
01/18/04 11:21 64.91 25.86 22.6
01/18/04 11:51 65.59 26.44 22.6
01/18/04 12:21 66.96 24.64 20
01/18/04 12:51 67.65 23.08 18.3
01/18/04 13:21 67.65 22.56 17.9
01/18/04 13:51 67.65 22.56 17.9
01/18/04 14:21 66.96 23.04 18.7
01/18/04 14:51 66.96 23.04 18.7
01/18/04 15:21 66.28 22.98 19.1
01/18/04 15:51 64.91 24.44 21.3
01/18/04 16:21 62.85 25.48 23.9
01/18/04 16:51 60.8 26.76 27.1
01/18/04 17:21 59.42 28.34 30.4
01/18/04 17:51 58.04 27.94 31.4
01/18/04 18:21 57.35 28.46 32.9
01/18/04 18:51 55.28 27.3 33.8
01/18/04 19:21 53.19 26.84 35.8
01/18/04 19:51 53.19 27.5 36.8
01/18/04 20:21 53.19 31.54 43.4
01/18/04 20:51 51.08 29.36 42.9
01/18/04 21:21 50.38 29.82 44.9
01/18/04 21:51 50.38 30.1 45.4
01/18/04 22:21 48.25 28.16 45.4
01/18/04 22:51 47.53 28.04 46.4
01/18/04 23:21 46.82 28.46 48.5
01/18/04 23:51 46.82 28.7 49
01/19/04 00:21 46.82 28.7 49
01/19/04 00:51 46.82 28.7 49
01/19/04 01:21 45.38 28.16 50.6
01/19/04 01:51 45.38 28.4 51.1
01/19/04 02:21 44.65 28.2 52.1
01/19/04 02:51 43.92 28.48 54.2
01/19/04 03:21 44.65 29.38 54.7
01/19/04 03:51 43.92 29.18 55.8
01/19/04 04:21 43.19 29.16 57.3
01/19/04 04:51 42.46 28.46 57.3
01/19/04 05:21 41.72 28.44 58.9
01/19/04 05:51 41.72 29.06 60.4
01/19/04 06:21 40.23 27.88 61
01/19/04 06:51 41.72 29.68 62
01/19/04 07:21 43.19 31.08 62
01/19/04 07:51 46.1 31.88 57.3
01/19/04 08:21 49.67 31.08 48.5
01/19/04 08:51 54.58 30.66 39.8
01/19/04 09:21 57.35 33.46 40.3
01/19/04 09:51 58.73 31.06 34.8
01/19/04 10:21 61.48 28.98 29
01/19/04 10:51 62.17 28.36 27.6
01/19/04 11:21 62.17 27.56 26.7
01/19/04 11:51 63.54 26.06 23.9
01/19/04 12:21 63.54 25.14 23
01/19/04 12:51 63.54 25.14 23
01/19/04 13:21 64.22 26.64 23.9
01/19/04 13:51 64.91 25.86 22.6
01/19/04 14:21 64.22 29.68 27.1
01/19/04 14:51 64.91 31.5 28.5
01/19/04 15:21 63.54 29.98 28.1
01/19/04 15:51 63.54 30.76 29
01/19/04 16:21 62.17 32.3 32.4
01/19/04 16:51 60.11 36.86 41.8
01/19/04 17:21 58.04 39.58 50.1
01/19/04 17:51 55.97 37.68 50.1
01/19/04 18:21 54.58 38.16 53.7
01/19/04 18:51 53.19 38.06 56.3
01/19/04 19:21 51.79 36.52 55.8
01/19/04 19:51 50.38 36.36 58.4
01/19/04 20:21 49.67 36.54 60.4
01/19/04 20:51 49.67 37 61.5
01/19/04 21:21 48.25 36.06 62.5
01/19/04 21:51 48.25 37.48 66.1
01/19/04 22:21 46.82 35.74 65.1
01/19/04 22:51 46.82 37.82 70.7
01/19/04 23:21 46.82 39.02 74.1
01/19/04 23:51 46.1 39 76.1
01/20/04 00:21 45.38 39.84 80.8
01/20/04 00:51 44.65 38.24 78
01/20/04 01:21 46.1 43.24 89.7
01/20/04 01:51 46.1 44.2 93
01/20/04 02:21 45.38 43.14 91.8
01/20/04 02:51 45.38 43.24 92.2
01/20/04 03:21 45.38 44.04 95
01/20/04 03:51 46.1 44.52 94.2
01/20/04 04:21 45.38 43.92 94.6
01/20/04 04:51 46.1 43.86 91.8
01/20/04 05:21 46.82 43.96 89.7
01/20/04 05:51 46.82 43.08 86.7
01/20/04 06:21 46.1 42.52 87.2
01/20/04 06:51 44.65 41.2 87.6
01/20/04 07:21 44.65 41.48 88.5
01/20/04 07:51 45.38 41.14 85
01/20/04 08:21 47.53 42.98 84.1
01/20/04 08:51 48.96 43.2 80.4
01/20/04 09:21 49.67 42.76 77
01/20/04 09:51 51.08 42.42 72.1
01/20/04 10:21 52.49 42.1 67.6
01/20/04 10:51 54.58 42.26 63
01/20/04 11:21 55.97 42.04 59.4
01/20/04 11:51 58.04 41.62 54.2
01/20/04 12:21 58.04 41.62 54.2
01/20/04 12:51 58.04 42.82 56.8
01/20/04 13:21 56.66 42.7 59.4
01/20/04 13:51 55.97 42.26 59.9
01/20/04 14:21 55.97 41.38 57.9
01/20/04 14:51 56.66 39.84 53.2
01/20/04 15:21 57.35 40.24 52.7
01/20/04 15:51 56.66 40.32 54.2
01/20/04 16:21 55.28 42.72 62.5
01/20/04 16:51 54.58 40.52 58.9
01/20/04 17:21 53.89 40.52 60.4
01/20/04 17:51 52.49 39.86 62
01/20/04 18:21 51.79 39.82 63.5
01/20/04 18:51 51.08 40.38 66.6
01/20/04 19:21 50.38 39.9 67.1
01/20/04 19:51 49.67 40.74 71.2
01/20/04 20:21 48.25 40.74 75.1
01/20/04 20:51 47.53 41.04 78
01/20/04 21:21 46.1 39.3 77
01/20/04 21:51 45.38 39.1 78.5
01/20/04 22:21 45.38 41.14 85
01/20/04 22:51 43.92 39.02 82.7
01/20/04 23:21 43.92 39.02 82.7
01/20/04 23:51 43.19 38.46 83.2
01/21/04 00:21 42.46 38.78 86.7
01/21/04 00:51 41.72 38.32 87.6
01/21/04 01:21 42.46 39.16 88
01/21/04 01:51 43.92 40.22 86.7
01/21/04 02:21 44.65 41.96 90.2
01/21/04 02:51 45.38 42.42 89.3
01/21/04 03:21 45.38 42.3 88.9
01/21/04 03:51 45.38 42.68 90.2
01/21/04 04:21 43.92 41.58 91.4
01/21/04 04:51 42.46 39.66 89.7
01/21/04 05:21 42.46 39.8 90.2
01/21/04 05:51 42.46 40.46 92.6
01/21/04 06:21 42.46 40.24 91.8
01/21/04 06:51 41.72 39.62 92.2
01/21/04 07:21 43.92 41.7 91.8
01/21/04 07:51 44.65 42.2 91
01/21/04 08:21 45.38 42.42 89.3
01/21/04 08:51 46.82 43.22 87.2
01/21/04 09:21 49.67 41.94 74.6
01/21/04 09:51 51.79 41.24 67.1
01/21/04 10:21 53.19 40.32 61.5
01/21/04 10:51 55.97 39.92 54.7
01/21/04 11:21 55.97 40.2 55.3
01/21/04 11:51 55.97 38.18 51.1
01/21/04 12:21 57.35 35.6 43.9
01/21/04 12:51 57.35 35.88 44.4
01/21/04 13:21 58.73 37.98 45.9
01/21/04 13:51 57.35 38.12 48.5
01/21/04 14:21 57.35 37.86 48
01/21/04 14:51 58.73 37.98 45.9
01/21/04 15:21 60.11 37.16 42.3
01/21/04 15:51 59.42 35.32 40.3
01/21/04 16:21 58.04 37.08 45.4
01/21/04 16:51 55.97 38.68 52.1
01/21/04 17:21 53.89 39.86 58.9
01/21/04 17:51 52.49 38.98 59.9
01/21/04 18:21 51.79 38.54 60.4
01/21/04 18:51 51.08 40.18 66.1
01/21/04 19:21 49.67 40.16 69.6
01/21/04 19:51 48.96 40.38 72.1
01/21/04 20:21 48.96 41.26 74.6
01/21/04 20:51 47.53 40.06 75.1
01/21/04 21:21 46.1 38.84 75.6
01/21/04 21:51 45.38 38.48 76.6
01/21/04 22:21 46.1 39.3 77
01/21/04 22:51 47.53 41.5 79.4
01/21/04 23:21 47.53 41.04 78
01/21/04 23:51 47.53 39.36 73.1
01/22/04 00:21 46.82 38.5 72.6
01/22/04 00:51 46.1 38.32 74.1
01/22/04 01:21 46.82 38.18 71.7
01/22/04 01:51 46.1 37.32 71.2
01/22/04 02:21 44.65 37.1 74.6
01/22/04 02:51 43.92 37.36 77.5
01/22/04 03:21 42.46 35.78 77
01/22/04 03:51 42.46 36.42 79
01/22/04 04:21 40.97 35.1 79.4
01/22/04 04:51 40.97 35.98 82.2
01/22/04 05:21 40.97 35.86 81.8
01/22/04 05:51 41.72 36.58 81.8
01/22/04 06:21 40.97 36.14 82.7
01/22/04 06:51 41.72 36.7 82.2
01/22/04 07:21 42.46 37 80.8
01/22/04 07:51 46.82 38.32 72.1
01/22/04 08:21 46.1 41.98 85.4
01/22/04 08:51 46.1 40.1 79.4
01/22/04 09:21 46.1 41.58 84.1
01/22/04 09:51 47.53 41.66 79.9
01/22/04 10:21 48.96 40.24 71.7
01/22/04 10:51 49.67 42.12 75.1
01/22/04 11:21 50.38 40.46 68.6
01/22/04 11:51 50.38 38.72 64.1
01/22/04 12:21 50.38 39.9 67.1
01/22/04 12:51 50.38 40.64 69.1
01/22/04 13:21 50.38 40.08 67.6
01/22/04 13:51 53.89 39.16 57.3
01/22/04 14:21 53.19 40.74 62.5
01/22/04 14:51 53.19 40.54 62
01/22/04 15:21 52.49 40.28 63
01/22/04 15:51 52.49 41.12 65.1
01/22/04 16:21 51.08 41.92 70.7
01/22/04 16:51 48.96 45.18 86.7
01/22/04 17:21 48.25 45.02 88.5
01/22/04 17:51 47.53 44.16 88
01/22/04 18:21 47.53 42.98 84.1
01/22/04 18:51 47.53 42.98 84.1
01/22/04 19:21 46.82 42.56 85
01/22/04 19:51 46.82 42.4 84.5
01/22/04 20:21 47.53 42.54 82.7
01/22/04 20:51 47.53 41.2 78.5
01/22/04 21:21 48.25 39.7 72.1
01/22/04 21:51 48.25 39.38 71.2
01/22/04 22:21 47.53 39.54 73.6
01/22/04 22:51 46.82 39.36 75.1
01/22/04 23:21 46.82 40.66 79
01/22/04 23:51 46.82 40.96 79.9
01/23/04 00:21 46.1 40.26 79.9
01/23/04 00:51 45.38 40.44 82.7
01/23/04 01:21 44.65 40 83.6
01/23/04 01:51 44.65 40.56 85.4
01/23/04 02:21 45.38 40.98 84.5
01/23/04 02:51 46.1 40.86 81.8
01/23/04 03:21 46.82 40.96 79.9
01/23/04 03:51 46.82 40.66 79
01/23/04 04:21 44.65 40 83.6
01/23/04 04:51 43.19 39.88 88
01/23/04 05:21 43.19 40.52 90.2
01/23/04 05:51 42.46 40.02 91
01/23/04 06:21 42.46 40.14 91.4
01/23/04 06:51 43.19 40.14 88.9
01/23/04 07:21 43.92 40.22 86.7
01/23/04 07:51 45.38 40.44 82.7
01/23/04 08:21 47.53 41.04 78
01/23/04 08:51 48.96 40.92 73.6
01/23/04 09:21 48.96 39.3 69.1
01/23/04 09:51 51.79 40.86 66.1
01/23/04 10:21 52.49 41.32 65.6
01/23/04 10:51 53.19 41.38 64.1
01/23/04 11:21 53.89 40.76 61
01/23/04 11:51 54.58 40.74 59.4
01/23/04 12:21 55.28 39.28 54.7
01/23/04 12:51 57.35 38.12 48.5
01/23/04 13:21 55.97 39.2 53.2
01/23/04 13:51 55.28 38.8 53.7
01/23/04 14:21 53.89 39.66 58.4
01/23/04 14:51 51.79 42.36 70.1
01/23/04 15:21 51.08 41.7 70.1
01/23/04 15:51 50.38 41.24 70.7
01/23/04 16:21 49.67 40.92 71.7
01/23/04 16:51 49.67 41.24 72.6
01/23/04 17:21 48.96 41.26 74.6
01/23/04 17:51 48.96 41.08 74.1
01/23/04 18:21 48.25 41.08 76.1
01/23/04 18:51 47.53 41.04 78
01/23/04 19:21 46.82 40.66 79
01/23/04 19:51 46.1 40.42 80.4
01/23/04 20:21 44.65 39.58 82.2
01/23/04 20:51 43.19 39.26 85.9
01/23/04 21:21 43.92 39.16 83.2
01/23/04 21:51 44.65 40.16 84.1
01/23/04 22:21 42.46 38.4 85.4
01/23/04 22:51 40.97 37.58 87.6
01/23/04 23:21 40.97 38.34 90.2
01/23/04 23:51 40.97 38.18 89.7
01/24/04 00:21 40.23 37.7 90.6
01/24/04 00:51 38.72 36.1 90.2
01/24/04 01:21 39.48 36.86 90.2
01/24/04 01:51 37.97 35.58 91
01/24/04 02:21 37.97 35.58 91
01/24/04 02:51 37.2 35.26 92.6
01/24/04 03:21 37.2 35.38 93
01/24/04 03:51 36.43 34.94 94.2
01/24/04 04:21 36.43 34.72 93.4
01/24/04 04:51 35.66 33.62 92.2
01/24/04 05:21 35.66 34.26 94.6
01/24/04 05:51 34.88 33.18 93.4
01/24/04 06:21 34.88 33.5 94.6
01/24/04 06:51 35.66 34.38 95
01/24/04 07:21 36.43 35.54 96.5
01/24/04 07:51 39.48 38.36 95.7
01/24/04 08:21 43.92 39.02 82.7
01/24/04 08:51 48.25 38.62 69.1
01/24/04 09:21 50.38 38.92 64.6
01/24/04 09:51 51.08 37.66 59.9
01/24/04 10:21 53.89 37.28 53.2
01/24/04 10:51 55.97 35.74 46.4
01/24/04 11:21 55.97 36.06 47
01/24/04 11:51 58.04 35.64 42.9
01/24/04 12:21 58.73 31.4 35.3
01/24/04 12:51 60.8 31.78 33.3
01/24/04 13:21 60.11 33.32 36.3
01/24/04 13:51 58.73 35.62 41.8
01/24/04 14:21 57.35 37.86 48
01/24/04 14:51 56.66 38.82 51.1
01/24/04 15:21 55.97 39.68 54.2
01/24/04 15:51 54.58 40.08 57.9
01/24/04 16:21 53.89 39.16 57.3
01/24/04 16:51 53.19 40.12 61
01/24/04 17:21 51.79 42 69.1
01/24/04 17:51 51.08 41.7 70.1
01/24/04 18:21 50.38 41.92 72.6
01/24/04 18:51 50.38 42.46 74.1
01/24/04 19:21 48.96 42.24 77.5
01/24/04 19:51 48.25 42.64 80.8
01/24/04 20:21 47.53 42.82 83.6
01/24/04 20:51 46.82 42.4 84.5
01/24/04 21:21 46.1 42.52 87.2
01/24/04 21:51 43.92 40.6 88
01/24/04 22:21 43.92 41.24 90.2
01/24/04 22:51 45.38 42.3 88.9
01/24/04 23:21 45.38 42.04 88
01/24/04 23:51 43.92 41.1 89.7
01/25/04 00:21 44.65 41.58 88.9
01/25/04 00:51 43.19 40.64 90.6
01/25/04 01:21 42.46 40.14 91.4
01/25/04 01:51 42.46 39.54 89.3
01/25/04 02:21 41.72 39.4 91.4
01/25/04 02:51 40.23 38.04 91.8
01/25/04 03:21 40.23 38.26 92.6
01/25/04 03:51 39.48 37.08 91
01/25/04 04:21 39.48 37.08 91
01/25/04 04:51 39.48 37.3 91.8
01/25/04 05:21 38.72 36.78 92.6
01/25/04 05:51 38.72 37.32 94.6
01/25/04 06:21 40.23 39.2 96.1
01/25/04 06:51 40.97 39.66 95
01/25/04 07:21 41.72 40.06 93.8
01/25/04 07:51 43.92 42.14 93.4
01/25/04 08:21 46.1 43.24 89.7
01/25/04 08:51 46.82 43.72 88.9
01/25/04 09:21 49.67 44.18 81.3
01/25/04 09:51 51.08 43.32 74.6
01/25/04 10:21 51.79 44.82 77
01/25/04 10:51 52.49 45.2 76.1
01/25/04 11:21 53.89 44.78 71.2
01/25/04 11:51 55.97 42.94 61.5
01/25/04 12:21 57.35 42.68 57.9
01/25/04 12:51 56.66 42.7 59.4
01/25/04 13:21 55.97 44.24 64.6
01/25/04 13:51 55.97 45.02 66.6
01/25/04 14:21 55.28 44.76 67.6
01/25/04 14:51 54.58 46.16 73.1
01/25/04 15:21 55.97 42.26 59.9
01/25/04 15:51 54.58 44.1 67.6
01/25/04 16:21 53.89 42.06 64.1
01/25/04 16:51 54.58 42.72 64.1
01/25/04 17:21 52.49 41.52 66.1
01/25/04 17:51 51.08 40.38 66.6
01/25/04 18:21 49.67 40.16 69.6
01/25/04 18:51 48.96 40.92 73.6
01/25/04 19:21 47.53 40.7 77
01/25/04 19:51 46.1 39.8 78.5
01/25/04 20:21 45.38 39.4 79.4
01/25/04 20:51 43.92 38.58 81.3
01/25/04 21:21 43.19 38.14 82.2
01/25/04 21:51 42.46 38 84.1
01/25/04 22:21 40.97 37.1 85.9
01/25/04 22:51 40.97 37.32 86.7
01/25/04 23:21 40.97 38.66 91.4
01/25/04 23:51 42.46 39.9 90.6
01/26/04 00:21 40.97 39.34 93.8
01/26/04 00:51 40.23 38.26 92.6
01/26/04 01:21 40.23 38.8 94.6
01/26/04 01:51 39.48 37.74 93.4
01/26/04 02:21 38.72 36.88 93
01/26/04 02:51 37.97 35.9 92.2
01/26/04 03:21 38.72 37.2 94.2
01/26/04 03:51 37.97 36.24 93.4
01/26/04 04:21 37.97 36.46 94.2
01/26/04 04:51 37.97 36.24 93.4
01/26/04 05:21 37.2 35.38 93
01/26/04 05:51 37.2 35.9 95
01/26/04 06:21 37.2 36.2 96.1
01/26/04 06:51 37.2 35.9 95
01/26/04 07:21 37.97 36.96 96.1
01/26/04 07:51 40.97 40.06 96.5
01/26/04 08:21 43.92 41.7 91.8
01/26/04 08:51 51.08 41.52 69.6
01/26/04 09:21 53.19 41.58 64.6
01/26/04 09:51 55.28 40.74 57.9
01/26/04 10:21 55.97 39.2 53.2
01/26/04 10:51 57.35 37.32 47
01/26/04 11:21 58.73 36.26 42.9
01/26/04 11:51 58.04 36.8 44.9
01/26/04 12:21 58.73 36.26 42.9
01/26/04 12:51 61.48 34.18 35.8
01/26/04 13:21 62.85 33.96 33.8
01/26/04 13:51 60.8 33.92 36.3
01/26/04 14:21 60.8 32.52 34.3
01/26/04 14:51 60.11 32.26 34.8
01/26/04 15:21 58.73 29.68 32.9
01/26/04 15:51 58.73 31.06 34.8
01/26/04 16:21 57.35 30.54 35.8
01/26/04 16:51 55.97 29.98 36.8
01/26/04 17:21 54.58 30.66 39.8
01/26/04 17:51 52.49 33.92 49
01/26/04 18:21 51.79 34.8 52.1
01/26/04 18:51 51.08 36.32 56.8
01/26/04 19:21 51.08 36.32 56.8
01/26/04 19:51 50.38 36.36 58.4
01/26/04 20:21 48.25 35.2 60.4
01/26/04 20:51 46.82 34.32 61.5
01/26/04 21:21 45.38 33.14 62
01/26/04 21:51 43.19 32.1 64.6
01/26/04 22:21 43.19 31.48 63
01/26/04 22:51 43.19 29.4 57.9
01/26/04 23:21 42.46 27.12 54.2
01/26/04 23:51 45.38 20.24 36.3
01/27/04 00:21 44.65 23.8 43.4
01/27/04 00:51 41.72 24 49
01/27/04 01:21 41.72 23.28 47.5
01/27/04 01:51 41.72 20.54 42.3
01/27/04 02:21 40.97 18.44 39.8
01/27/04 02:51 40.97 16 35.8
01/27/04 03:21 40.97 14.7 33.8
01/27/04 03:51 40.23 15.02 35.3
01/27/04 04:21 40.23 15.02 35.3
01/27/04 04:51 40.23 14.36 34.3
01/27/04 05:21 40.23 14.36 34.3
01/27/04 05:51 40.23 13.7 33.3
01/27/04 06:21 40.97 12.66 30.9
01/27/04 06:51 40.23 13.08 32.4
01/27/04 07:21 40.97 13.02 31.4
01/27/04 07:51 45.38 12.32 25.7
01/27/04 08:21 49.67 8.36 18.3
01/27/04 08:51 54.58 6.92 14.3
01/27/04 09:21 56.66 6.64 13.1
01/27/04 09:51 58.04 7.74 13.1
01/27/04 10:21 60.11 11.32 14.3
01/27/04 10:51 62.17 12.32 13.9
01/27/04 11:21 63.54 14.06 14.3
01/27/04 11:51 64.91 15.62 14.6
01/27/04 12:21 66.96 16.78 14.3
01/27/04 12:51 68.33 17.22 13.9
01/27/04 13:21 68.33 17.22 13.9
01/27/04 13:51 69.71 17.62 13.5
01/27/04 14:21 68.33 21.34 16.6
01/27/04 14:51 67.65 24.1 19.1
01/27/04 15:21 66.96 23.54 19.1
01/27/04 15:51 64.22 26.22 23.5
01/27/04 16:21 63.54 26.06 23.9
01/27/04 16:51 61.48 26.98 26.7
01/27/04 17:21 59.42 27.62 29.5
01/27/04 17:51 57.35 28.46 32.9
01/27/04 18:21 56.66 28.52 33.8
01/27/04 18:51 55.97 28.62 34.8
01/27/04 19:21 53.89 27.46 35.8
01/27/04 19:51 53.19 26.5 35.3
01/27/04 20:21 52.49 26.22 35.8
01/27/04 20:51 51.79 25.26 35.3
01/27/04 21:21 50.38 25.02 36.8
01/27/04 21:51 48.25 25.28 40.3
01/27/04 22:21 48.25 23.76 37.8
01/27/04 22:51 47.53 23.12 37.8
01/27/04 23:21 46.82 23.4 39.3
01/27/04 23:51 46.1 21.52 37.3
01/28/04 00:21 44.65 22.04 40.3
01/28/04 00:51 44.65 22.34 40.8
01/28/04 01:21 43.92 22.26 41.8
01/28/04 01:51 43.92 22.26 41.8
01/28/04 02:21 43.92 22.54 42.3
01/28/04 02:51 43.19 22.48 43.4
01/28/04 03:21 41.72 23.02 47
01/28/04 03:51 41.72 23.02 47
01/28/04 04:21 41.72 23.02 47
01/28/04 04:51 41.72 24 49
01/28/04 05:21 41.72 25.48 52.1
01/28/04 05:51 41.72 25.76 52.7
01/28/04 06:21 40.97 27.94 59.4
01/28/04 06:51 40.23 27.88 61
01/28/04 07:21 40.97 28.8 61.5
01/28/04 07:51 44.65 27.24 50.1
01/28/04 08:21 48.25 30.8 50.6
01/28/04 08:51 53.89 31.54 42.3
01/28/04 09:21 57.35 34.38 41.8
01/28/04 09:51 60.8 37.48 41.8
01/28/04 10:21 60.8 36.54 40.3
01/28/04 10:51 63.54 36 35.8
01/28/04 11:21 64.91 35.38 33.3
01/28/04 11:51 66.96 34.88 30.4
01/28/04 12:21 67.65 38.16 33.8
01/28/04 12:51 68.33 37.68 32.4
01/28/04 13:21 68.33 36.9 31.4
01/28/04 13:51 67.65 37.08 32.4
01/28/04 14:21 68.33 36.08 30.4
01/28/04 14:51 67.65 38.54 34.3
01/28/04 15:21 66.28 38.06 35.3
01/28/04 15:51 65.59 37.46 35.3
01/28/04 16:21 64.22 35.52 34.3
01/28/04 16:51 62.17 35.48 36.8
01/28/04 17:21 59.42 38.04 44.9
01/28/04 17:51 57.35 36.16 44.9
01/28/04 18:21 55.97 35.74 46.4
01/28/04 18:51 55.28 37.54 51.1
01/28/04 19:21 55.28 38.04 52.1
01/28/04 19:51 54.58 36.64 50.6
01/28/04 20:21 54.58 35.58 48.5
01/28/04 20:51 53.89 35.46 49.5
01/28/04 21:21 53.89 35.46 49.5
01/28/04 21:51 53.19 34.56 49
01/28/04 22:21 52.49 33.66 48.5
01/28/04 22:51 51.79 33.52 49.5
01/28/04 23:21 51.79 31.92 46.4
01/28/04 23:51 51.79 31.66 45.9
01/29/04 00:21 52.49 32.88 47
01/29/04 00:51 51.79 33.52 49.5
01/29/04 01:21 48.96 33.16 54.2
01/29/04 01:51 46.82 32.54 57.3
01/29/04 02:21 46.1 32.76 59.4
01/29/04 02:51 44.65 32.06 61
01/29/04 03:21 43.92 31.78 62
01/29/04 03:51 43.92 32.36 63.5
01/29/04 04:21 43.19 32.28 65.1
01/29/04 04:51 42.46 31.96 66.1
01/29/04 05:21 42.46 31.58 65.1
01/29/04 05:51 40.97 30.92 67.1
01/29/04 06:21 40.23 30.94 69.1
01/29/04 06:51 43.92 32.18 63
01/29/04 07:21 46.82 33.02 58.4
01/29/04 07:51 50.38 33.26 51.6
01/29/04 08:21 53.19 32.1 44.4
01/29/04 08:51 55.28 29.04 36.3
01/29/04 09:21 56.66 29.22 34.8
01/29/04 09:51 57.35 28.76 33.3
01/29/04 10:21 58.04 28.7 32.4
01/29/04 10:51 59.42 28.74 30.9
01/29/04 11:21 60.8 28.4 29
01/29/04 11:51 61.48 28.56 28.5
01/29/04 12:21 61.48 27.78 27.6
01/29/04 12:51 62.85 26.84 25.3
01/29/04 13:21 62.85 27.7 26.2
01/29/04 13:51 63.54 27.8 25.7
01/29/04 14:21 62.85 28.52 27.1
01/29/04 14:51 62.17 28.36 27.6
01/29/04 15:21 62.17 28.36 27.6
01/29/04 15:51 61.48 27.78 27.6
01/29/04 16:21 61.48 27.78 27.6
01/29/04 16:51 60.11 27.8 29
01/29/04 17:21 58.04 28.7 32.4
01/29/04 17:51 56.66 29.22 34.8
01/29/04 18:21 55.97 29.64 36.3
01/29/04 18:51 55.28 29.36 36.8
01/29/04 19:21 53.19 30.02 40.8
01/29/04 19:51 51.79 29.36 41.8
01/29/04 20:21 50.38 29 43.4
01/29/04 20:51 49.67 28.9 44.4
01/29/04 21:21 52.49 28.48 39.3
01/29/04 21:51 51.08 29 42.3
01/29/04 22:21 54.58 29.72 38.3
01/29/04 22:51 55.28 29.7 37.3
01/29/04 23:21 55.28 29.36 36.8
01/29/04 23:51 53.89 28.78 37.8
01/30/04 00:21 52.49 28.48 39.3
01/30/04 00:51 51.08 28.12 40.8
01/30/04 01:21 51.08 28.42 41.3
01/30/04 01:51 50.38 27.2 40.3
01/30/04 02:21 48.25 27.34 43.9
01/30/04 02:51 46.82 27.38 46.4
01/30/04 03:21 45.38 26.88 48
01/30/04 03:51 43.92 26.04 49
01/30/04 04:21 43.19 25.6 49.5
01/30/04 04:51 42.46 25.7 51.1
01/30/04 05:21 42.46 25.7 51.1
01/30/04 05:51 41.72 25.48 52.1
01/30/04 06:21 40.23 25.04 54.2
01/30/04 06:51 40.97 25.74 54.2
01/30/04 07:21 42.46 26.44 52.7
01/30/04 07:51 46.1 27.04 47
01/30/04 08:21 49.67 27.16 41.3
01/30/04 08:51 55.28 26.28 32.4
01/30/04 09:21 58.04 25.6 28.5
01/30/04 09:51 60.11 24.9 25.7
01/30/04 10:21 62.17 24.9 23.9
01/30/04 10:51 64.22 23.3 20.8
01/30/04 11:21 65.59 25.46 21.7
01/30/04 11:51 67.65 29.52 23.9
01/30/04 12:21 68.33 26.72 20.8
01/30/04 12:51 69.71 24.76 18.3
01/30/04 13:21 70.39 24.8 17.9
01/30/04 13:51 71.77 24.12 16.6
01/30/04 14:21 71.77 26.98 18.7
01/30/04 14:51 71.77 25.92 17.9
01/30/04 15:21 70.39 34.12 26.2
01/30/04 15:51 68.33 32.82 26.7
01/30/04 16:21 66.28 34.7 30.9
01/30/04 16:51 64.22 34.48 32.9
01/30/04 17:21 62.17 36.16 37.8
01/30/04 17:51 60.11 35.94 40.3
01/30/04 18:21 58.73 36.56 43.4
01/30/04 18:51 57.35 35.88 44.4
01/30/04 19:21 55.28 36.48 49
01/30/04 19:51 54.58 37.92 53.2
01/30/04 20:21 53.19 38.28 56.8
01/30/04 20:51 51.79 38.54 60.4
01/30/04 21:21 52.49 43.04 70.1
01/30/04 21:51 51.08 42.78 73.1
01/30/04 22:21 50.38 42.1 73.1
01/30/04 22:51 49.67 40.92 71.7
01/30/04 23:21 48.96 38.36 66.6
01/30/04 23:51 49.67 37.2 62
01/31/04 00:21 48.96 39.66 70.1
01/31/04 00:51 47.53 39.36 73.1
01/31/04 01:21 46.82 40.5 78.5
01/31/04 01:51 45.38 39.72 80.4
01/31/04 02:21 44.65 40 83.6
01/31/04 02:51 43.92 39.02 82.7
01/31/04 03:21 43.19 39.88 88
01/31/04 03:51 43.19 40.64 90.6
01/31/04 04:21 43.19 40.98 91.8
01/31/04 04:51 42.46 39.3 88.5
01/31/04 05:21 41.72 38.92 89.7
01/31/04 05:51 40.97 39 92.6
01/31/04 06:21 43.92 41.58 91.4
01/31/04 06:51 43.92 41.48 91
01/31/04 07:21 45.38 41.26 85.4
01/31/04 07:51 47.53 41.2 78.5
01/31/04 08:21 50.38 41.6 71.7
01/31/04 08:51 53.19 41.58 64.6
01/31/04 09:21 53.89 40.98 61.5
01/31/04 09:51 54.58 39.82 57.3
01/31/04 10:21 55.97 38.18 51.1
01/31/04 10:51 57.35 38.64 49.5
01/31/04 11:21 58.04 36.8 44.9
01/31/04 11:51 58.73 38.58 47
01/31/04 12:21 58.73 37.98 45.9
01/31/04 12:51 59.42 34.68 39.3
01/31/04 13:21 59.42 36.24 41.8
01/31/04 13:51 60.11 34.32 37.8
01/31/04 14:21 58.73 33.42 38.3
01/31/04 14:51 58.73 34.06 39.3
01/31/04 15:21 58.73 34.38 39.8
01/31/04 15:51 58.04 35.94 43.4
01/31/04 16:21 55.97 36.86 48.5
01/31/04 16:51 54.58 39.36 56.3
01/31/04 17:21 53.19 39.86 60.4
01/31/04 17:51 51.79 40.46 65.1
01/31/04 18:21 51.08 40.56 67.1
01/31/04 18:51 49.67 40.16 69.6
01/31/04 19:21 48.96 39.88 70.7
01/31/04 19:51 48.25 39.56 71.7
01/31/04 20:21 47.53 39.18 72.6
01/31/04 20:51 47.53 39.54 73.6
01/31/04 21:21 46.1 39.3 77
01/31/04 21:51 45.38 38.6 77
01/31/04 22:21 44.65 38.56 79
01/31/04 22:51 44.65 38.84 79.9
01/31/04 23:21 44.65 39.28 81.3
01/31/04 23:51 43.92 39.02 82.7